Time;durP1;ratioP1;P1;durP2;ratioP2;P2;SDS_P1;SDS_P2;PMS_P1;PMS_P2;Temp;Humidity;BMP_temperature;BMP_pressure;BME280_temperature;BME280_humidity;BME280_pressure;Samples;Min_cycle;Max_cycle;Signal;HPM_P1;HPM_P2
2022/07/26 00:01:40;;;;;;;7.30;2.38;;;23.10;62.00;;;;;;4782205;29;20051;-80
2022/07/26 00:04:07;;;;;;;4.57;2.28;;;23.00;62.20;;;;;;4815959;29;20504;-80
2022/07/26 00:06:35;;;;;;;6.10;2.78;;;23.00;61.90;;;;;;4812368;29;20050;-80
2022/07/26 00:09:03;;;;;;;4.97;2.20;;;23.10;64.10;;;;;;4784920;29;20086;-81
2022/07/26 00:11:32;;;;;;;7.72;2.33;;;23.00;62.50;;;;;;4796368;29;20354;-81
2022/07/26 00:14:06;;;;;;;7.82;2.58;;;23.00;62.30;;;;;;4795338;29;20059;-81
2022/07/26 00:16:34;;;;;;;5.82;2.28;;;23.00;63.80;;;;;;4785812;29;20078;-81
2022/07/26 00:19:03;;;;;;;4.70;2.10;;;23.00;63.10;;;;;;4799475;29;20531;-81
2022/07/26 00:21:31;;;;;;;4.68;2.47;;;23.00;64.50;;;;;;4816284;29;20074;-81
2022/07/26 00:23:59;;;;;;;6.68;2.65;;;23.00;63.30;;;;;;4802142;29;20057;-81
2022/07/26 00:26:26;;;;;;;7.53;2.20;;;22.90;63.30;;;;;;4800105;29;20496;-81
2022/07/26 00:28:53;;;;;;;3.03;2.13;;;22.90;64.00;;;;;;4798456;29;20051;-81
2022/07/26 00:31:21;;;;;;;7.57;2.50;;;22.90;64.30;;;;;;4794716;29;20078;-81
2022/07/26 00:33:49;;;;;;;6.30;2.40;;;22.90;65.50;;;;;;4777216;29;20062;-81
2022/07/26 00:36:16;;;;;;;7.95;2.38;;;22.80;64.90;;;;;;4796075;29;20067;-81
2022/07/26 00:38:43;;;;;;;6.45;2.00;;;22.80;64.70;;;;;;4800066;29;20055;-80
2022/07/26 00:41:11;;;;;;;6.70;2.55;;;22.80;65.70;;;;;;4800952;29;20039;-81
2022/07/26 00:43:53;;;;;;;7.65;3.20;;;22.70;65.10;;;;;;4793397;29;20054;-81
2022/07/26 00:46:20;;;;;;;6.03;2.28;;;22.70;64.20;;;;;;4795470;29;20055;-81
2022/07/26 00:48:48;;;;;;;4.43;2.20;;;22.70;65.10;;;;;;4801857;29;20059;-81
2022/07/26 00:51:15;;;;;;;6.47;2.38;;;22.70;64.10;;;;;;4798850;29;20723;-81
2022/07/26 00:53:45;;;;;;;5.70;2.28;;;22.70;64.60;;;;;;4800434;29;20062;-80
2022/07/26 00:56:14;;;;;;;7.20;2.47;;;22.70;64.50;;;;;;4803169;29;20075;-81
2022/07/26 00:58:42;;;;;;;10.60;2.50;;;22.70;63.70;;;;;;4816996;29;20050;-81
2022/07/26 01:01:10;;;;;;;7.45;2.33;;;22.60;64.20;;;;;;4817012;29;20053;-81
2022/07/26 01:03:38;;;;;;;4.90;2.65;;;22.60;63.90;;;;;;4796090;29;20043;-81
2022/07/26 01:06:06;;;;;;;6.50;2.08;;;22.50;63.70;;;;;;4799000;29;20047;-81
2022/07/26 01:08:33;;;;;;;5.88;2.88;;;22.50;63.80;;;;;;4801659;29;20047;-81
2022/07/26 01:11:01;;;;;;;3.15;2.47;;;22.50;62.90;;;;;;4802666;29;20054;-81
2022/07/26 01:13:28;;;;;;;5.38;2.38;;;22.50;62.90;;;;;;4796681;29;20059;-81
2022/07/26 01:16:01;;;;;;;4.55;2.67;;;22.50;63.50;;;;;;4803912;29;20055;-81
2022/07/26 01:18:29;;;;;;;4.40;2.53;;;22.40;63.40;;;;;;4800346;29;20055;-81
2022/07/26 01:21:01;;;;;;;6.35;2.80;;;22.50;64.10;;;;;;4803510;29;20050;-81
2022/07/26 01:23:41;;;;;;;6.50;2.40;;;22.50;63.60;;;;;;4786148;29;20145;-80
2022/07/26 01:26:09;;;;;;;6.18;2.60;;;22.40;63.40;;;;;;4786517;29;20043;-81
2022/07/26 01:28:38;;;;;;;4.07;2.67;;;22.40;62.90;;;;;;4785777;29;20111;-80
2022/07/26 01:31:06;;;;;;;7.78;2.55;;;22.40;62.80;;;;;;4801854;29;20039;-80
2022/07/26 01:33:34;;;;;;;4.80;2.40;;;22.40;63.40;;;;;;4801554;29;20055;-81
2022/07/26 01:36:02;;;;;;;7.97;2.70;;;22.30;63.60;;;;;;4798055;29;20054;-81
2022/07/26 01:38:29;;;;;;;4.38;2.63;;;22.30;63.50;;;;;;4817331;29;20059;-81
2022/07/26 01:40:56;;;;;;;3.97;2.10;;;22.30;63.90;;;;;;4812891;29;20142;-83
2022/07/26 01:43:24;;;;;;;7.43;3.63;;;22.20;63.90;;;;;;4799034;29;20104;-80
2022/07/26 01:45:53;;;;;;;3.45;2.38;;;22.20;63.40;;;;;;4783481;29;20150;-83
2022/07/26 01:48:21;;;;;;;4.50;2.10;;;22.20;64.00;;;;;;4782481;29;20139;-80
2022/07/26 01:50:49;;;;;;;5.07;2.35;;;22.20;64.30;;;;;;4797059;29;20065;-81
2022/07/26 01:53:16;;;;;;;5.97;2.50;;;22.20;63.50;;;;;;4800061;29;20039;-81
2022/07/26 01:55:44;;;;;;;5.53;2.50;;;22.10;63.50;;;;;;4782171;29;20082;-79
2022/07/26 01:58:11;;;;;;;8.68;2.40;;;22.10;64.20;;;;;;4800683;29;20063;-80
2022/07/26 02:00:39;;;;;;;3.75;2.47;;;22.10;64.30;;;;;;4796534;29;20069;-79
2022/07/26 02:03:06;;;;;;;5.13;2.22;;;22.10;64.00;;;;;;4796953;29;20115;-80
2022/07/26 02:05:33;;;;;;;4.70;2.40;;;22.10;63.80;;;;;;4793373;29;20055;-80
2022/07/26 02:08:01;;;;;;;5.43;2.13;;;22.10;65.00;;;;;;4801683;29;20090;-81
2022/07/26 02:10:59;;;;;;;4.97;2.67;;;22.00;64.40;;;;;;4799229;29;20108;-81
2022/07/26 02:13:17;;;;;;;7.95;2.40;;;22.00;64.40;;;;;;4798348;29;20356;-80
2022/07/26 02:15:44;;;;;;;4.68;2.35;;;22.00;64.60;;;;;;4782307;29;20051;-80
2022/07/26 02:18:11;;;;;;;5.40;2.38;;;21.90;64.70;;;;;;4782261;29;20080;-79
2022/07/26 02:20:39;;;;;;;6.53;2.30;;;21.90;64.10;;;;;;4802737;29;20412;-81
2022/07/26 02:23:06;;;;;;;5.75;2.40;;;21.90;63.70;;;;;;4799062;29;20055;-80
2022/07/26 02:25:34;;;;;;;5.75;2.50;;;21.90;63.50;;;;;;4798511;29;20051;-80
2022/07/26 02:28:01;;;;;;;5.50;2.70;;;21.90;63.30;;;;;;4794044;29;20061;-81
2022/07/26 02:30:29;;;;;;;5.75;2.60;;;21.80;63.80;;;;;;4800729;29;20055;-81
2022/07/26 02:32:56;;;;;;;3.30;2.53;;;21.80;63.90;;;;;;4782896;29;20051;-81
2022/07/26 02:35:23;;;;;;;5.32;2.78;;;21.80;64.90;;;;;;4815229;29;20050;-81
2022/07/26 02:37:51;;;;;;;6.75;2.35;;;21.80;64.30;;;;;;4801573;29;20154;-81
2022/07/26 02:40:19;;;;;;;6.90;2.70;;;21.80;64.60;;;;;;4780465;29;20142;-81
2022/07/26 02:42:46;;;;;;;5.60;2.72;;;21.80;63.90;;;;;;4787481;29;20055;-81
2022/07/26 02:45:13;;;;;;;5.20;3.13;;;21.80;64.00;;;;;;4799950;29;20046;-80
2022/07/26 02:47:49;;;;;;;5.63;2.80;;;21.80;64.10;;;;;;4800904;29;20058;-80
2022/07/26 02:50:18;;;;;;;5.43;3.10;;;21.80;64.70;;;;;;4796031;29;20125;-81
2022/07/26 02:52:46;;;;;;;5.47;2.65;;;21.80;64.70;;;;;;4781677;29;20055;-80
2022/07/26 02:55:15;;;;;;;6.97;2.72;;;21.80;64.80;;;;;;4778302;29;20043;-81
2022/07/26 02:57:43;;;;;;;8.45;2.80;;;21.80;65.00;;;;;;4786273;29;20055;-80
2022/07/26 03:00:15;;;;;;;7.47;2.90;;;21.70;65.40;;;;;;4815375;29;20136;-80
2022/07/26 03:02:43;;;;;;;8.75;3.13;;;21.70;65.10;;;;;;4798458;29;20047;-81
2022/07/26 03:05:10;;;;;;;6.30;3.13;;;21.70;65.90;;;;;;4800215;29;20047;-81
2022/07/26 03:07:38;;;;;;;6.38;3.30;;;21.70;66.90;;;;;;4785131;29;20047;-80
2022/07/26 03:10:06;;;;;;;4.47;3.20;;;21.70;66.50;;;;;;4798415;29;20047;-79
2022/07/26 03:12:33;;;;;;;15.30;3.90;;;21.60;65.40;;;;;;4793365;29;20146;-81
2022/07/26 03:15:01;;;;;;;7.53;3.40;;;21.60;65.30;;;;;;4798384;29;20255;-81
2022/07/26 03:17:28;;;;;;;7.13;3.20;;;21.60;66.30;;;;;;4803933;29;20059;-81
2022/07/26 03:19:58;;;;;;;9.07;3.80;;;21.60;66.30;;;;;;4816796;29;20050;-81
2022/07/26 03:22:26;;;;;;;6.53;3.65;;;21.60;65.80;;;;;;4800712;29;20149;-81
2022/07/26 03:24:53;;;;;;;11.55;3.85;;;21.60;66.30;;;;;;4793915;29;20569;-81
2022/07/26 03:27:20;;;;;;;9.65;3.72;;;21.60;66.50;;;;;;4798801;29;20055;-81
2022/07/26 03:29:48;;;;;;;8.57;4.20;;;21.60;66.20;;;;;;4799253;29;20043;-81
2022/07/26 03:32:15;;;;;;;8.15;4.03;;;21.60;66.00;;;;;;4794292;29;20051;-82
2022/07/26 03:34:42;;;;;;;7.55;4.25;;;21.60;66.00;;;;;;4786869;29;20046;-81
2022/07/26 03:37:10;;;;;;;10.30;4.40;;;21.60;65.80;;;;;;4798991;29;20413;-80
2022/07/26 03:39:37;;;;;;;8.57;3.90;;;21.60;66.30;;;;;;4799512;29;20054;-81
2022/07/26 03:42:04;;;;;;;11.65;4.13;;;21.40;66.20;;;;;;4798696;29;20051;-81
2022/07/26 03:44:32;;;;;;;10.85;4.30;;;21.40;66.60;;;;;;4799836;29;20121;-81
2022/07/26 03:46:59;;;;;;;6.13;4.13;;;21.50;67.20;;;;;;4815730;29;20039;-82
2022/07/26 03:49:27;;;;;;;9.95;4.47;;;21.50;67.40;;;;;;4786255;29;20055;-81
2022/07/26 03:51:54;;;;;;;10.65;4.60;;;21.50;66.70;;;;;;4787608;29;20114;-81
2022/07/26 03:54:22;;;;;;;9.27;4.45;;;21.50;66.30;;;;;;4782107;29;20069;-81
2022/07/26 03:56:49;;;;;;;14.30;4.72;;;21.60;67.70;;;;;;4783334;29;20057;-81
2022/07/26 03:59:17;;;;;;;9.27;5.47;;;21.70;67.50;;;;;;4782472;29;20059;-81
2022/07/26 04:01:46;;;;;;;11.48;4.25;;;21.70;68.20;;;;;;4798322;29;20138;-81
2022/07/26 04:04:16;;;;;;;8.80;4.75;;;21.80;68.30;;;;;;4813977;29;20078;-81
2022/07/26 04:06:51;;;;;;;10.50;4.90;;;21.80;68.10;;;;;;4795960;29;20411;-82
2022/07/26 04:09:18;;;;;;;13.93;5.20;;;21.80;67.00;;;;;;4801736;29;20097;-82
2022/07/26 04:11:47;;;;;;;8.05;4.15;;;21.80;66.90;;;;;;4786910;29;20092;-81
2022/07/26 04:14:14;;;;;;;10.00;5.25;;;21.90;68.20;;;;;;4794964;29;20055;-82
2022/07/26 04:16:42;;;;;;;11.20;5.50;;;21.90;68.20;;;;;;4797578;29;20079;-81
2022/07/26 04:19:10;;;;;;;9.90;5.35;;;21.90;66.50;;;;;;4780668;29;20100;-81
2022/07/26 04:21:37;;;;;;;14.52;5.15;;;22.00;67.70;;;;;;4818457;29;20046;-82
2022/07/26 04:24:04;;;;;;;11.10;5.57;;;22.10;68.80;;;;;;4787612;29;20050;-81
2022/07/26 04:26:32;;;;;;;13.30;5.75;;;22.20;68.90;;;;;;4802331;29;20042;-82
2022/07/26 04:28:59;;;;;;;11.27;5.57;;;22.30;68.00;;;;;;4801020;29;20051;-81
2022/07/26 04:31:27;;;;;;;13.68;5.35;;;22.40;65.90;;;;;;4804514;29;20054;-81
2022/07/26 04:34:02;;;;;;;17.92;6.50;;;22.50;67.30;;;;;;4814651;29;20051;-80
2022/07/26 04:36:29;;;;;;;18.17;7.35;;;22.50;66.10;;;;;;4799640;29;20125;-82
2022/07/26 04:38:57;;;;;;;14.80;6.70;;;22.50;66.20;;;;;;4817080;29;20054;-82
2022/07/26 04:41:24;;;;;;;12.00;6.28;;;22.60;65.10;;;;;;4812423;29;20050;-82
2022/07/26 04:43:52;;;;;;;13.57;6.72;;;22.60;64.90;;;;;;4812110;29;20435;-82
2022/07/26 04:46:19;;;;;;;17.23;6.90;;;22.80;64.70;;;;;;4802833;29;20050;-86
2022/07/26 04:48:46;;;;;;;13.15;6.05;;;22.90;64.40;;;;;;4797528;29;20050;-77
2022/07/26 04:51:14;;;;;;;16.48;6.70;;;22.90;64.80;;;;;;4795801;29;20075;-76
2022/07/26 04:53:41;;;;;;;12.70;6.22;;;22.90;64.40;;;;;;4779573;29;20071;-77
2022/07/26 04:56:09;;;;;;;14.95;6.55;;;23.10;64.00;;;;;;4783617;29;20043;-76
2022/07/26 04:58:36;;;;;;;12.25;6.03;;;23.20;62.80;;;;;;4797600;29;20527;-78
2022/07/26 05:01:04;;;;;;;17.23;6.32;;;23.30;62.70;;;;;;4780763;29;20552;-77
2022/07/26 05:03:38;;;;;;;16.15;6.30;;;23.30;62.40;;;;;;4798987;29;20047;-77
2022/07/26 05:06:06;;;;;;;13.77;6.07;;;23.20;62.60;;;;;;4794413;29;20070;-77
2022/07/26 05:08:34;;;;;;;12.43;6.00;;;23.10;64.10;;;;;;4788723;29;20478;-77
2022/07/26 05:11:02;;;;;;;13.95;7.18;;;23.10;64.20;;;;;;4795230;29;20077;-76
2022/07/26 05:13:30;;;;;;;12.75;5.85;;;23.10;65.60;;;;;;4810895;29;20070;-77
2022/07/26 05:15:58;;;;;;;10.82;5.53;;;23.20;65.10;;;;;;4801220;29;20508;-76
2022/07/26 05:18:26;;;;;;;14.10;5.85;;;23.30;65.80;;;;;;4792893;29;20055;-77
2022/07/26 05:20:55;;;;;;;11.65;5.18;;;23.30;65.20;;;;;;4811709;29;20055;-77
2022/07/26 05:23:23;;;;;;;11.32;5.35;;;23.30;65.50;;;;;;4796407;29;20716;-76
2022/07/26 05:25:50;;;;;;;12.00;5.13;;;23.70;65.70;;;;;;4782254;29;20066;-77
2022/07/26 05:28:17;;;;;;;10.43;5.45;;;23.70;63.90;;;;;;4802252;29;20042;-77
2022/07/26 05:30:44;;;;;;;10.30;5.10;;;23.60;64.30;;;;;;4783748;29;20047;-77
2022/07/26 05:33:12;;;;;;;9.93;5.25;;;23.80;64.00;;;;;;4798421;29;20129;-77
2022/07/26 05:35:42;;;;;;;8.13;4.68;;;24.00;63.60;;;;;;4796226;29;20055;-77
2022/07/26 05:38:10;;;;;;;10.65;5.65;;;24.20;63.40;;;;;;4800045;29;20150;-76
2022/07/26 05:40:37;;;;;;;9.82;4.90;;;24.30;62.80;;;;;;4795007;29;20526;-76
2022/07/26 05:43:05;;;;;;;11.57;5.15;;;24.40;63.80;;;;;;4785608;29;20078;-77
2022/07/26 05:45:32;;;;;;;11.13;4.78;;;24.60;64.30;;;;;;4799497;29;20055;-76
2022/07/26 05:48:00;;;;;;;14.88;5.38;;;24.80;62.50;;;;;;4796849;29;20127;-78
2022/07/26 05:50:27;;;;;;;11.05;4.47;;;24.90;61.00;;;;;;4796655;29;20069;-78
2022/07/26 05:52:55;;;;;;;12.10;4.85;;;25.00;62.10;;;;;;4796224;29;20104;-77
2022/07/26 05:55:22;;;;;;;12.02;4.70;;;25.20;61.50;;;;;;4796953;29;20050;-77
2022/07/26 05:57:49;;;;;;;7.32;4.05;;;25.40;61.30;;;;;;4816703;29;20075;-77
2022/07/26 06:00:17;;;;;;;8.95;4.03;;;25.50;59.80;;;;;;4795850;29;20050;-77
2022/07/26 06:02:44;;;;;;;6.97;3.72;;;25.60;60.60;;;;;;4790499;29;20189;-78
2022/07/26 06:05:14;;;;;;;6.82;3.88;;;25.70;60.80;;;;;;4779603;29;20054;-77
2022/07/26 06:07:42;;;;;;;9.45;5.25;;;25.80;59.20;;;;;;4796875;29;20119;-77
2022/07/26 06:10:09;;;;;;;10.23;4.47;;;25.90;59.00;;;;;;4798966;29;20057;-78
2022/07/26 06:12:37;;;;;;;9.02;3.95;;;26.10;59.80;;;;;;4793825;29;20051;-78
2022/07/26 06:15:05;;;;;;;8.32;3.67;;;26.10;58.40;;;;;;4778788;29;20059;-78
2022/07/26 06:17:41;;;;;;;8.05;3.60;;;26.30;58.30;;;;;;4779126;29;20055;-78
2022/07/26 06:20:09;;;;;;;8.07;3.97;;;26.50;58.60;;;;;;4791189;29;20046;-78
2022/07/26 06:22:36;;;;;;;8.20;4.13;;;26.50;58.40;;;;;;4791644;29;20134;-77
2022/07/26 06:25:04;;;;;;;5.47;3.22;;;26.60;58.50;;;;;;4776608;29;20046;-78
2022/07/26 06:27:31;;;;;;;9.95;3.50;;;26.80;58.00;;;;;;4774086;29;20056;-77
2022/07/26 06:29:59;;;;;;;10.63;3.20;;;26.90;57.80;;;;;;4771798;29;20135;-77
2022/07/26 06:32:26;;;;;;;5.80;3.08;;;26.90;57.20;;;;;;4788273;29;20060;-77
2022/07/26 06:34:53;;;;;;;8.65;3.30;;;27.10;57.40;;;;;;4792436;29;20406;-78
2022/07/26 06:37:20;;;;;;;7.95;3.00;;;27.30;56.80;;;;;;4795894;29;20058;-77
2022/07/26 06:39:48;;;;;;;8.32;3.55;;;27.40;56.70;;;;;;4778374;29;20154;-77
2022/07/26 06:42:15;;;;;;;9.82;3.78;;;27.50;56.50;;;;;;4794264;29;20038;-77
2022/07/26 06:44:42;;;;;;;7.30;3.30;;;27.60;56.30;;;;;;4806673;29;20786;-78
2022/07/26 06:47:09;;;;;;;8.00;3.53;;;27.80;56.70;;;;;;4781152;29;20042;-78
2022/07/26 06:49:37;;;;;;;9.57;3.90;;;27.90;55.80;;;;;;4780472;29;20065;-79
2022/07/26 06:52:04;;;;;;;7.80;4.07;;;28.00;55.90;;;;;;4793362;29;20047;-78
2022/07/26 06:54:31;;;;;;;11.43;4.03;;;28.00;56.10;;;;;;4795734;29;20504;-79
2022/07/26 06:56:59;;;;;;;7.97;3.90;;;28.00;56.30;;;;;;4794256;29;20074;-78
2022/07/26 06:59:26;;;;;;;9.95;3.75;;;28.00;57.10;;;;;;4797433;29;20058;-79
2022/07/26 07:01:53;;;;;;;7.32;3.80;;;28.00;56.50;;;;;;4795064;29;20054;-79
2022/07/26 07:04:31;;;;;;;9.85;3.85;;;28.10;57.60;;;;;;4795880;29;20042;-78
2022/07/26 07:07:03;;;;;;;8.15;3.97;;;28.30;57.90;;;;;;4789894;29;20113;-79
2022/07/26 07:09:33;;;;;;;7.13;4.47;;;28.40;57.80;;;;;;4799989;29;20078;-79
2022/07/26 07:12:05;;;;;;;7.40;4.35;;;28.50;58.40;;;;;;4793777;29;20039;-80
2022/07/26 07:14:37;;;;;;;6.50;4.20;;;28.70;58.80;;;;;;4795327;29;20077;-78
2022/07/26 07:17:05;;;;;;;9.23;4.25;;;28.70;59.70;;;;;;4807474;29;20054;-80
2022/07/26 07:19:39;;;;;;;8.88;4.45;;;28.80;60.20;;;;;;4803592;29;20094;-79
2022/07/26 07:22:10;;;;;;;8.20;4.55;;;29.00;61.10;;;;;;4795326;29;20047;-82
2022/07/26 07:24:39;;;;;;;15.27;5.05;;;29.10;60.90;;;;;;4786650;29;20515;-84
2022/07/26 07:27:07;;;;;;;10.40;5.55;;;28.80;61.40;;;;;;4790267;29;20039;-82
2022/07/26 07:29:36;;;;;;;11.82;4.82;;;28.90;61.50;;;;;;4776941;29;20061;-78
2022/07/26 07:32:07;;;;;;;7.97;5.00;;;29.00;61.90;;;;;;4778598;29;20173;-80
2022/07/26 07:34:42;;;;;;;21.15;4.95;;;29.00;61.60;;;;;;4795462;29;20571;-80
2022/07/26 07:37:11;;;;;;;13.38;5.65;;;28.80;62.20;;;;;;4780051;29;20831;-82
2022/07/26 07:39:38;;;;;;;9.27;4.80;;;28.80;62.40;;;;;;4792376;29;21198;-81
2022/07/26 07:42:07;;;;;;;9.77;4.25;;;28.90;61.70;;;;;;4794687;29;20051;-78
2022/07/26 07:44:34;;;;;;;7.55;4.75;;;29.10;62.30;;;;;;4777773;29;20078;-79
2022/07/26 07:47:01;;;;;;;11.60;5.57;;;29.30;61.60;;;;;;4780989;29;20051;-79
2022/07/26 07:49:29;;;;;;;12.10;4.57;;;29.40;61.20;;;;;;4796840;29;20053;-83
2022/07/26 07:51:57;;;;;;;11.82;5.10;;;29.30;60.70;;;;;;4799546;29;20058;-83
2022/07/26 07:54:25;;;;;;;11.15;5.30;;;29.30;60.70;;;;;;4798684;29;20055;-78
2022/07/26 07:56:55;;;;;;;8.35;4.93;;;29.20;60.70;;;;;;4790293;29;20423;-78
2022/07/26 07:59:23;;;;;;;7.22;4.40;;;29.30;60.40;;;;;;4797682;29;20050;-79
2022/07/26 08:01:50;;;;;;;11.77;5.05;;;29.50;60.70;;;;;;4778566;29;20057;-79
2022/07/26 08:04:17;;;;;;;12.85;4.65;;;29.60;59.90;;;;;;4799965;29;20517;-77
2022/07/26 08:06:45;;;;;;;11.82;5.07;;;29.40;60.00;;;;;;4806609;29;20055;-79
2022/07/26 08:09:17;;;;;;;8.50;5.30;;;29.60;60.70;;;;;;4795101;29;20051;-81
2022/07/26 08:11:45;;;;;;;5.93;4.35;;;29.60;60.50;;;;;;4774280;29;20057;-79
2022/07/26 08:14:18;;;;;;;7.95;4.72;;;29.70;60.70;;;;;;4792461;29;20050;-82
2022/07/26 08:16:45;;;;;;;8.27;5.32;;;29.80;60.30;;;;;;4793000;29;20055;-81
2022/07/26 08:19:13;;;;;;;13.45;5.45;;;30.00;60.40;;;;;;4794637;29;20081;-79
2022/07/26 08:21:44;;;;;;;8.40;4.75;;;30.10;60.50;;;;;;4780325;29;20505;-79
2022/07/26 08:24:12;;;;;;;8.27;4.65;;;29.90;60.30;;;;;;4794075;29;20062;-82
2022/07/26 08:26:40;;;;;;;10.30;4.22;;;30.00;59.80;;;;;;4793234;29;20072;-79
2022/07/26 08:29:07;;;;;;;6.93;4.18;;;30.10;60.10;;;;;;4792384;29;20112;-79
2022/07/26 08:31:35;;;;;;;6.38;4.53;;;30.20;60.40;;;;;;4790431;29;20520;-79
2022/07/26 08:34:03;;;;;;;10.02;3.90;;;30.20;59.50;;;;;;4796913;29;20062;-79
2022/07/26 08:36:31;;;;;;;6.78;4.13;;;30.10;60.10;;;;;;4779656;29;20047;-79
2022/07/26 08:39:00;;;;;;;4.78;3.88;;;30.10;59.90;;;;;;4793799;29;20524;-83
2022/07/26 08:41:28;;;;;;;14.40;5.50;;;30.30;60.30;;;;;;4809402;29;20096;-80
2022/07/26 08:44:04;;;;;;;7.53;4.20;;;30.40;60.80;;;;;;4796479;29;20111;-80
2022/07/26 08:46:38;;;;;;;8.15;4.22;;;30.40;59.80;;;;;;4812800;29;20051;-81
2022/07/26 08:49:08;;;;;;;4.88;3.53;;;30.40;59.50;;;;;;4785512;29;20055;-79
2022/07/26 08:51:41;;;;;;;8.23;4.27;;;30.30;60.50;;;;;;4784574;29;20051;-79
2022/07/26 08:54:11;;;;;;;9.63;3.95;;;30.10;60.00;;;;;;4780920;29;20587;-79
2022/07/26 08:56:50;;;;;;;9.73;4.22;;;30.10;60.40;;;;;;4786894;29;20062;-78
2022/07/26 08:59:19;;;;;;;6.65;3.97;;;30.20;60.70;;;;;;4805119;29;20162;-79
2022/07/26 09:02:04;;;;;;;9.93;4.30;;;30.50;60.60;;;;;;4791981;29;20082;-80
2022/07/26 09:04:36;;;;;;;11.18;4.15;;;30.50;60.30;;;;;;4779493;29;20126;-82
2022/07/26 09:07:16;;;;;;;9.82;4.43;;;30.30;60.40;;;;;;4787382;29;20058;-79
2022/07/26 09:09:58;;;;;;;10.95;4.10;;;30.40;61.00;;;;;;4785573;29;20058;-80
2022/07/26 09:12:26;;;;;;;;;;;30.40;61.00;;;;;;4784713;29;20075;-80
2022/07/26 09:14:54;;;;;;;11.27;3.40;;;30.10;61.10;;;;;;4793268;29;19933;-81
2022/07/26 09:17:23;;;;;;;16.13;4.53;;;30.00;61.70;;;;;;4777584;29;20142;-79
2022/07/26 09:20:08;;;;;;;5.22;3.15;;;30.10;61.70;;;;;;4777727;29;20054;-79
2022/07/26 09:23:07;;;;;;;8.23;4.15;;;30.10;61.80;;;;;;4793586;29;20067;-79
2022/07/26 09:25:41;;;;;;;6.55;3.92;;;30.10;62.20;;;;;;4785973;29;20055;-80
2022/07/26 09:28:25;;;;;;;9.05;3.67;;;30.30;62.40;;;;;;4778724;29;20046;-79
2022/07/26 09:31:02;;;;;;;8.63;4.18;;;29.90;62.40;;;;;;4793210;29;20061;-80
2022/07/26 09:33:47;;;;;;;8.70;3.95;;;29.60;63.20;;;;;;4776613;29;20058;-78
2022/07/26 09:36:15;;;;;;;7.70;3.65;;;29.50;63.50;;;;;;4770941;29;20137;-78
2022/07/26 09:38:48;;;;;;;5.25;3.53;;;29.60;64.10;;;;;;4774891;29;20580;-80
2022/07/26 09:41:27;;;;;;;8.35;4.43;;;29.40;64.20;;;;;;4773529;29;20549;-79
2022/07/26 09:44:19;;;;;;;7.63;3.80;;;29.50;64.70;;;;;;4793412;29;20055;-80
2022/07/26 09:46:56;;;;;;;5.68;3.80;;;29.40;64.50;;;;;;4813315;29;20065;-81
2022/07/26 09:49:26;;;;;;;17.60;4.45;;;29.20;64.80;;;;;;4787521;29;20141;-79
2022/07/26 09:52:19;;;;;;;11.02;3.97;;;29.10;65.20;;;;;;4776569;29;20244;-82
2022/07/26 09:54:48;;;;;;;8.95;4.05;;;28.80;65.20;;;;;;4775126;29;20055;-79
2022/07/26 09:57:18;;;;;;;7.05;4.28;;;28.50;66.10;;;;;;4805859;29;20046;-81
2022/07/26 09:59:46;;;;;;;6.72;4.40;;;28.40;66.00;;;;;;4779470;29;20560;-79
2022/07/26 10:02:17;;;;;;;6.68;4.05;;;28.40;66.00;;;;;;4792178;29;20978;-81
2022/07/26 10:04:44;;;;;;;9.23;3.75;;;28.40;66.20;;;;;;4807980;29;20491;-80
2022/07/26 10:07:12;;;;;;;9.02;4.18;;;28.30;65.90;;;;;;4794975;29;20051;-81
2022/07/26 10:10:03;;;;;;;9.55;4.85;;;28.20;66.30;;;;;;4788093;29;20047;-82
2022/07/26 10:12:32;;;;;;;5.77;3.90;;;28.20;66.60;;;;;;4787763;29;20051;-81
2022/07/26 10:14:59;;;;;;;6.03;3.33;;;28.20;66.90;;;;;;4791718;29;20055;-78
2022/07/26 10:17:32;;;;;;;8.13;3.42;;;28.10;66.80;;;;;;4791757;29;20120;-79
2022/07/26 10:20:06;;;;;;;5.45;3.20;;;28.00;67.70;;;;;;4775903;29;20073;-79
2022/07/26 10:22:51;;;;;;;5.15;3.30;;;28.10;68.90;;;;;;4807175;29;20050;-81
2022/07/26 10:25:18;;;;;;;7.22;3.40;;;27.80;69.40;;;;;;4794278;29;20713;-81
2022/07/26 10:27:48;;;;;;;9.65;3.75;;;27.70;71.20;;;;;;4780646;29;20074;-79
2022/07/26 10:30:18;;;;;;;4.88;3.30;;;27.50;72.60;;;;;;4790685;29;20071;-79
2022/07/26 10:33:07;;;;;;;5.13;3.13;;;27.30;73.70;;;;;;4797698;29;20046;-77
2022/07/26 10:35:52;;;;;;;6.45;3.28;;;27.40;74.30;;;;;;4800093;29;20055;-77
2022/07/26 10:38:25;;;;;;;6.35;3.33;;;27.40;74.90;;;;;;4792300;29;20047;-78
2022/07/26 10:40:58;;;;;;;5.70;3.10;;;26.80;76.70;;;;;;4793903;29;20059;-80
2022/07/26 10:43:27;;;;;;;6.28;3.25;;;26.60;78.10;;;;;;4795551;29;20055;-78
2022/07/26 10:46:16;;;;;;;6.53;3.35;;;26.70;79.10;;;;;;4805262;29;20059;-80
2022/07/26 10:49:07;;;;;;;7.07;3.25;;;26.70;79.90;;;;;;4789750;29;20050;-81
2022/07/26 10:51:40;;;;;;;7.22;4.03;;;26.40;83.00;;;;;;4793901;29;20051;-79
2022/07/26 10:54:10;;;;;;;6.28;4.00;;;26.00;87.60;;;;;;4805355;29;20112;-81
2022/07/26 10:56:39;;;;;;;9.17;3.83;;;26.00;89.70;;;;;;4779446;29;20512;-80
2022/07/26 10:59:07;;;;;;;5.18;3.08;;;26.00;89.10;;;;;;4794425;29;20123;-82
2022/07/26 11:01:44;;;;;;;8.00;3.45;;;25.70;90.00;;;;;;4797542;29;20061;-80
2022/07/26 11:04:21;;;;;;;6.35;3.70;;;25.50;91.20;;;;;;4794985;29;20047;-79
2022/07/26 11:06:50;;;;;;;5.47;3.45;;;25.30;92.50;;;;;;4812674;29;20050;-79
2022/07/26 11:09:18;;;;;;;7.38;3.70;;;25.30;92.60;;;;;;4782713;29;20661;-78
2022/07/26 11:11:47;;;;;;;6.35;3.88;;;25.20;93.20;;;;;;4812802;29;20059;-82
2022/07/26 11:14:16;;;;;;;6.72;3.78;;;25.20;94.10;;;;;;4795223;29;20086;-78
2022/07/26 11:16:46;;;;;;;7.35;3.58;;;25.10;95.60;;;;;;4796118;29;20054;-78
2022/07/26 11:19:23;;;;;;;6.80;4.05;;;24.90;98.90;;;;;;4793807;29;20050;-78
2022/07/26 11:21:59;;;;;;;8.15;4.78;;;24.90;99.90;;;;;;4794644;29;20109;-79
2022/07/26 11:24:27;;;;;;;7.93;4.63;;;24.90;99.90;;;;;;4796843;29;20050;-80
2022/07/26 11:27:00;;;;;;;8.25;4.38;;;24.80;99.90;;;;;;4795349;29;20062;-79
2022/07/26 11:29:31;;;;;;;7.60;4.53;;;25.00;99.90;;;;;;4799396;29;20062;-78
2022/07/26 11:32:16;;;;;;;9.20;5.43;;;25.10;99.90;;;;;;4797633;29;20054;-79
2022/07/26 11:34:45;;;;;;;8.50;4.78;;;25.30;99.90;;;;;;4777965;29;20055;-80
2022/07/26 11:37:13;;;;;;;7.82;5.30;;;25.10;99.90;;;;;;4784473;29;20420;-79
2022/07/26 11:39:40;;;;;;;9.40;5.32;;;25.20;99.90;;;;;;4795581;29;20047;-78
2022/07/26 11:42:13;;;;;;;8.63;5.25;;;25.20;99.90;;;;;;4797641;29;20095;-78
2022/07/26 11:44:46;;;;;;;9.63;4.88;;;25.10;99.90;;;;;;4795198;29;20138;-78
2022/07/26 11:47:19;;;;;;;7.43;5.30;;;25.20;99.90;;;;;;4778227;29;20054;-78
2022/07/26 11:49:50;;;;;;;10.35;5.35;;;25.30;99.90;;;;;;4794714;29;20134;-80
2022/07/26 11:52:37;;;;;;;11.73;5.57;;;25.30;99.90;;;;;;4783744;29;20047;-79
2022/07/26 11:55:05;;;;;;;6.57;4.80;;;25.30;99.90;;;;;;4792503;29;20149;-80
2022/07/26 11:57:33;;;;;;;10.93;5.38;;;25.30;99.90;;;;;;4793280;29;20745;-80
2022/07/26 12:00:01;;;;;;;7.38;5.40;;;25.30;99.90;;;;;;4781649;29;20134;-80
2022/07/26 12:02:37;;;;;;;10.23;6.25;;;25.30;99.90;;;;;;4798490;29;20466;-80
2022/07/26 12:05:18;;;;;;;8.27;5.32;;;25.20;99.90;;;;;;4798335;29;20055;-80
2022/07/26 12:07:53;;;;;;;11.45;5.55;;;25.20;98.90;;;;;;4777721;29;20125;-79
2022/07/26 12:10:21;;;;;;;8.90;5.32;;;25.10;99.20;;;;;;4798632;29;20653;-79
2022/07/26 12:12:49;;;;;;;8.35;4.50;;;25.20;99.30;;;;;;4790895;29;20051;-79
2022/07/26 12:15:16;;;;;;;7.53;4.82;;;25.30;98.20;;;;;;4774496;29;20134;-80
2022/07/26 12:17:59;;;;;;;6.70;4.47;;;25.30;97.40;;;;;;4799930;29;20054;-78
2022/07/26 12:20:27;;;;;;;6.90;5.05;;;25.40;96.30;;;;;;4784932;29;20082;-82
2022/07/26 12:22:57;;;;;;;7.68;4.32;;;25.50;96.40;;;;;;4797373;29;20051;-79
2022/07/26 12:25:26;;;;;;;8.18;4.90;;;25.60;96.00;;;;;;4796895;29;20058;-82
2022/07/26 12:27:53;;;;;;;8.45;4.78;;;25.50;94.70;;;;;;4775932;29;20057;-79
2022/07/26 12:30:21;;;;;;;5.68;3.88;;;25.70;95.10;;;;;;4788302;29;20100;-77
2022/07/26 12:32:54;;;;;;;6.30;4.18;;;25.90;93.50;;;;;;4779329;29;20039;-78
2022/07/26 12:35:34;;;;;;;5.00;3.83;;;25.90;92.90;;;;;;4777342;29;20149;-78
2022/07/26 12:38:02;;;;;;;8.32;4.18;;;26.10;91.80;;;;;;4795577;29;20050;-77
2022/07/26 12:40:38;;;;;;;7.03;4.32;;;25.90;92.60;;;;;;4776735;29;20088;-79
2022/07/26 12:43:05;;;;;;;11.93;4.82;;;25.90;92.50;;;;;;4799051;29;20066;-78
2022/07/26 12:45:34;;;;;;;9.52;4.55;;;25.80;92.90;;;;;;4798859;29;20488;-80
2022/07/26 12:48:09;;;;;;;6.35;3.72;;;26.00;92.60;;;;;;4794481;29;20601;-79
2022/07/26 12:50:37;;;;;;;8.60;4.40;;;25.90;92.10;;;;;;4799353;29;20057;-80
2022/07/26 12:53:06;;;;;;;5.88;3.67;;;26.00;92.00;;;;;;4810599;29;23161;-80
2022/07/26 12:55:34;;;;;;;7.00;3.65;;;26.10;91.20;;;;;;4782908;29;20051;-78
2022/07/26 12:58:02;;;;;;;5.70;3.92;;;26.10;91.10;;;;;;4796845;29;20058;-79
2022/07/26 13:00:29;;;;;;;5.38;3.50;;;26.20;90.90;;;;;;4797159;29;20611;-79